createdAt,value
2019-02-27T00:04:05.387Z,3.71
2019-02-27T00:24:07.483Z,4.36
2019-02-27T00:44:09.385Z,4.00
2019-02-27T01:04:09.032Z,3.27
2019-02-27T01:24:18.651Z,3.01
2019-02-27T01:44:28.224Z,3.79
2019-02-27T02:04:40.083Z,3.33
2019-02-27T02:24:44.214Z,6.33
2019-02-27T02:44:48.306Z,5.75
2019-02-27T03:04:50.360Z,3.78
2019-02-27T03:24:49.957Z,4.26
2019-02-27T03:44:59.593Z,3.58
2019-02-27T04:05:10.010Z,5.89
2019-02-27T04:25:09.623Z,5.23
2019-02-27T04:45:19.210Z,4.51
2019-02-27T05:05:31.016Z,6.17
2019-02-27T05:25:30.586Z,6.79
2019-02-27T05:45:40.146Z,3.89
2019-02-27T06:05:52.106Z,4.75
2019-02-27T06:25:51.686Z,3.51
2019-02-27T06:46:01.217Z,6.49
2019-02-27T07:06:10.722Z,6.41
2019-02-27T07:26:22.679Z,4.55
2019-02-27T07:46:22.424Z,5.49
2019-02-27T08:06:35.037Z,4.47
2019-02-27T08:26:32.883Z,5.10
2019-02-27T08:46:44.800Z,3.95
2019-02-27T09:06:44.314Z,3.55
2019-02-27T09:26:52.626Z,4.90
2019-02-27T09:47:02.707Z,6.13
2019-02-27T10:07:02.417Z,5.28
2019-02-27T10:27:12.116Z,4.70
2019-02-27T10:47:21.885Z,5.06
2019-02-27T11:07:31.497Z,7.00
2019-02-27T11:27:43.379Z,7.23
2019-02-27T11:47:48.066Z,6.26
2019-02-27T12:07:45.148Z,8.19
2019-02-27T12:27:54.759Z,9.86
2019-02-27T12:48:04.425Z,6.00
2019-02-27T13:08:18.920Z,6.54
2019-02-27T13:28:16.098Z,5.15
2019-02-27T13:48:25.930Z,4.71
2019-02-27T14:08:37.953Z,5.65
2019-02-27T14:28:37.709Z,6.18
2019-02-27T14:48:47.307Z,6.92
2019-02-27T15:09:03.078Z,7.46
2019-02-27T15:29:03.139Z,7.87
2019-02-27T15:49:00.975Z,8.89
2019-02-27T16:09:18.435Z,13.71
2019-02-27T16:29:22.744Z,9.05
2019-02-27T16:49:18.711Z,10.05
2019-02-27T17:09:29.819Z,12.83
2019-02-27T17:29:31.063Z,14.12
2019-02-27T17:49:38.630Z,12.46
2019-02-27T18:10:56.013Z,13.60
2019-02-27T18:44:07.907Z,14.07
2019-02-27T18:50:11.270Z,19.49
2019-02-27T19:10:06.855Z,24.72
2019-02-27T19:30:14.864Z,24.50
2019-02-27T19:50:26.200Z,20.45
2019-02-27T20:10:29.111Z,21.44
2019-02-27T20:30:37.169Z,23.64
2019-02-27T20:50:41.944Z,21.70
2019-02-27T21:10:46.442Z,25.06
2019-02-27T21:30:46.236Z,26.00
2019-02-27T21:50:59.422Z,17.92
2019-02-27T22:11:01.543Z,18.97
2019-02-27T22:31:06.096Z,23.09
2019-02-27T22:51:13.427Z,36.92
2019-02-27T23:11:11.760Z,33.08
2019-02-27T23:31:23.420Z,33.87
2019-02-27T23:51:30.485Z,32.69
